Auberry, California
Current Conditions -  °F | °C
As of 5:08 AM on Saturday 22 Nov 2014 (Local Time) from KFAT Reporting Station
Haze Haze  
Wind Chill: 46°   Ceiling: 1700
Heat Index: 48°   Visibility: 5mi
Dew Point: 46°   Wind: 5mph
Humidity: 93%   Direction: 120°ESE
Pressure: 30.17"   Gusts: NA
Location:  37.08°N, 119.49°W
Report Text: KFAT 221308Z 12004KT 5SM BR BKN017 OVC120 09/08 A3017 RMK AO2 T00890078
Loading
Personal Weather Stations






























Interactive Weather Map New forecast layout! Learn more

10-Day Weather Forecast

Advertisements
Track Severe Weather on mobile